Terminal Aerodrome Forecast
Issued by NWS

Home | Current Version | Previous Version | Text Only | Print | Product List | Glossary On
Versions: 1 2 3 4 5 6 7 8 9 10 11 12
000
FTUS44 KBMX 080535
TAFANB
TAF
KANB 080535Z 0806/0906 23004KT P6SM SCT150
     FM081300 25006KT P6SM BKN050 BKN130
     FM081600 28013G23KT P6SM BKN050
     FM090100 29009KT P6SM BKN035=

USA.gov is the U.S. government's official web portal to all federal, state and local government web resources and services.